หน้าหลัก
METAR-TAF:

METAR-TAF

ท่าอากาศยาน :

Truth or Consequences Municipal Airport

Truth or Consequences, นิวเม็กซิโก, สหรัฐอเมริกา

ละติจูด: 33-14-12N, ลองจิจูด: 107-16-05W, ความสูง: 1478 ม.

การสังเกตสภาพอากาศปัจจุบัน

รายงานได้ทำขึ้นเมื่อ 14 นาทีที่แล้ว ณ เวลา 15:53 UTC
ลม 7 นอตจากใต้
อุณหภูมิ 29°C
ความชื้น 27%
ความกดอากาศ 1022 hPa
ทัศนวิสัย: 16.1 กม.
ท้องฟ้าแจ่มใส

METAR: KTCS 121553Z AUTO 18007KT 10SM CLR 29/08 A3017 RMK AO2 SLP116 T02940078

เวลา: 10:07 (16:07 UTC)

การพยากรณ์

รายงานได้ทำขึ้นเมื่อ 4 ชั่วโมงและ 30 นาทีที่แล้ว ณ เวลา 11:37 UTC
การพยากรณ์มีผลตั้งแต่วันที่ 12 ณ เวลา 12 UTC จนถึงวันที่ 13 ณ เวลา 12 UTC
ลม 5 นอตจากตะวันตก/ตะวันตกเฉียงเหนือ
ทัศนวิสัย: 10 กม.
ท้องฟ้าแจ่มใส
จาก 12 ณ เวลา 1900 UTC
ลม 8 นอตจากใต้
ทัศนวิสัย: 10 กม.
ท้องฟ้าแจ่มใส

TAF: KTCS 121137Z 1212/1312 29005KT P6SM SKC FM121900 19008KT P6SM SKC

สังเกตการณ์สภาพอากาศและพยากรณ์อากาศของสนามบินมากกว่า 4000 แห่ง (รายงาน METAR และ TAF).

สถานีที่ดูได้จะแสดงไว้ด้วยจุดสีเหลืองและสีแดงบนแผนที่.

เลื่อนเมาส์ไปเหนือจุดเพื่อดูชื่อสถานี.

แล้วคลิกเพื่อดูสังเกตการณ์และการพยากรณ์สภาพอากาศ.

ในการเปลี่ยนแผนที่: คลิกที่ปุ่มสีเขียวที่มีกากบาทสีดำเพื่อซูมเข้า; ที่ปุ่มสีเขียวที่มีขีดเพื่อซูมออก; หรือที่ลูกศรสีเขียวเพื่อไปยังแผนที่ที่อยู่ติดกัน.


METAR-TAF: